Neavitt, Maryland
Current Conditions -  °F | °C
As of 5:50 PM on Thursday 18 Dec 2014 (Local Time) from KESN Reporting Station
Broken Clouds Broken Clouds  
Wind Chill: 31°   Ceiling: 3800
Heat Index: 37°   Visibility: 10mi
Dew Point: 27°   Wind: 9mph
Humidity: 65%   Direction: 330°NNW
Pressure: 30.13"   Gusts: NA
Location:  38.73°N, 76.28°W
Report Text: KESN 182250Z 33008KT 10SM BKN038 03/M03 A3013
Loading
Personal Weather Stations






























Interactive Weather Map New forecast layout! Learn more

10-Day Weather Forecast

Advertisements
Track Severe Weather on mobile